createdAt,value
2022-11-08T00:00:06.887Z,1008.18
2022-11-08T00:01:06.901Z,1008.16
2022-11-08T00:02:07.025Z,1008.15
2022-11-08T00:03:07.194Z,1008.18
2022-11-08T00:04:06.907Z,1008.21
2022-11-08T00:05:06.904Z,1008.19
2022-11-08T00:06:06.910Z,1008.17
2022-11-08T00:07:06.921Z,1008.20
2022-11-08T00:08:06.929Z,1008.17
2022-11-08T00:09:06.931Z,1008.19
2022-11-08T00:10:06.937Z,1008.21
2022-11-08T00:11:06.936Z,1008.22
2022-11-08T00:12:06.948Z,1008.26
2022-11-08T00:13:06.947Z,1008.27
2022-11-08T00:14:06.951Z,1008.20
2022-11-08T00:15:06.960Z,1008.26
2022-11-08T00:16:06.969Z,1008.22
2022-11-08T00:17:06.989Z,1008.25
2022-11-08T00:18:06.972Z,1008.27
2022-11-08T00:19:06.980Z,1008.23
2022-11-08T00:20:06.991Z,1008.26
2022-11-08T00:21:06.991Z,1008.25
2022-11-08T00:22:07.000Z,1008.20
2022-11-08T00:23:07.006Z,1008.24
2022-11-08T00:24:07.003Z,1008.26
2022-11-08T00:25:07.012Z,1008.26
2022-11-08T00:26:07.020Z,1008.28
2022-11-08T00:27:07.026Z,1008.29
2022-11-08T00:28:07.026Z,1008.29
2022-11-08T00:29:07.036Z,1008.26
2022-11-08T00:30:07.045Z,1008.32
2022-11-08T00:31:07.054Z,1008.31
2022-11-08T00:32:07.055Z,1008.26
2022-11-08T00:33:07.077Z,1008.25
2022-11-08T00:34:07.067Z,1008.25
2022-11-08T00:35:07.083Z,1008.24
2022-11-08T00:36:07.082Z,1008.22
2022-11-08T00:37:07.078Z,1008.25
2022-11-08T00:38:07.076Z,1008.29
2022-11-08T00:39:07.091Z,1008.35
2022-11-08T00:40:07.089Z,1008.30
2022-11-08T00:41:07.101Z,1008.33
2022-11-08T00:42:07.105Z,1008.32
2022-11-08T00:43:07.112Z,1008.33
2022-11-08T00:44:07.118Z,1008.26
2022-11-08T00:45:07.117Z,1008.30
2022-11-08T00:46:07.122Z,1008.28
2022-11-08T00:47:07.138Z,1008.23
2022-11-08T00:48:07.131Z,1008.23
2022-11-08T00:49:07.155Z,1008.27
2022-11-08T00:50:07.149Z,1008.29
2022-11-08T00:51:07.153Z,1008.27
2022-11-08T00:52:07.163Z,1008.24
2022-11-08T00:53:07.167Z,1008.20
2022-11-08T00:54:07.162Z,1008.20
2022-11-08T00:55:07.167Z,1008.18
2022-11-08T00:56:07.174Z,1008.10
2022-11-08T00:57:07.177Z,1008.07
2022-11-08T00:58:07.183Z,1008.12
2022-11-08T00:59:07.188Z,1008.13
2022-11-08T01:00:07.202Z,1008.14
2022-11-08T01:01:07.302Z,1008.13
2022-11-08T01:02:07.326Z,1008.14
2022-11-08T01:03:07.220Z,1008.09
2022-11-08T01:04:07.214Z,1008.11
2022-11-08T01:05:07.240Z,1008.16
2022-11-08T01:06:07.233Z,1008.13
2022-11-08T01:07:07.230Z,1008.18
2022-11-08T01:08:07.238Z,1008.21
2022-11-08T01:09:07.249Z,1008.18
2022-11-08T01:10:07.248Z,1008.20
2022-11-08T01:11:07.259Z,1008.20
2022-11-08T01:12:07.265Z,1008.22
2022-11-08T01:13:07.260Z,1008.17
2022-11-08T01:14:07.275Z,1008.19
2022-11-08T01:15:07.382Z,1008.20
2022-11-08T01:16:07.286Z,1008.18
2022-11-08T01:17:07.281Z,1008.15
2022-11-08T01:18:07.287Z,1008.21
2022-11-08T01:19:07.293Z,1008.15
2022-11-08T01:20:07.309Z,1008.19
2022-11-08T01:21:07.325Z,1008.15
2022-11-08T01:22:07.306Z,1008.13
2022-11-08T01:23:07.329Z,1008.15
2022-11-08T01:24:07.328Z,1008.14
2022-11-08T01:25:07.324Z,1008.13
2022-11-08T01:26:07.328Z,1008.15
2022-11-08T01:27:07.341Z,1008.17
2022-11-08T01:28:07.345Z,1008.18
2022-11-08T01:29:07.345Z,1008.13
2022-11-08T01:30:07.354Z,1008.20
2022-11-08T01:31:07.368Z,1008.18
2022-11-08T01:32:07.357Z,1008.18
2022-11-08T01:33:07.369Z,1008.18
2022-11-08T01:34:07.367Z,1008.16
2022-11-08T01:35:07.373Z,1008.21
2022-11-08T01:36:07.389Z,1008.18
2022-11-08T01:37:07.404Z,1008.17
2022-11-08T01:38:07.403Z,1008.12
2022-11-08T01:39:07.394Z,1008.15
2022-11-08T01:40:07.408Z,1008.11
2022-11-08T01:41:07.405Z,1008.13
2022-11-08T01:42:07.418Z,1008.10
2022-11-08T01:43:07.414Z,1008.09
2022-11-08T01:44:07.421Z,1008.07
2022-11-08T01:45:07.426Z,1008.05
2022-11-08T01:46:07.435Z,1008.09
2022-11-08T01:47:07.439Z,1008.08
2022-11-08T01:48:07.440Z,1008.05
2022-11-08T01:49:07.445Z,1008.03
2022-11-08T01:50:07.449Z,1008.06
2022-11-08T01:51:07.456Z,1008.02
2022-11-08T01:52:07.474Z,1008.03
2022-11-08T01:53:07.486Z,1008.05
2022-11-08T01:54:07.478Z,1008.05
2022-11-08T01:55:07.486Z,1008.06
2022-11-08T01:56:07.487Z,1008.10
2022-11-08T01:57:07.486Z,1008.11
2022-11-08T01:58:07.500Z,1008.08
2022-11-08T01:59:07.504Z,1008.08
2022-11-08T02:00:07.500Z,1008.10
2022-11-08T02:01:07.575Z,1008.04
2022-11-08T02:02:07.724Z,1008.13
2022-11-08T02:03:07.517Z,1008.12
2022-11-08T02:04:07.530Z,1008.14
2022-11-08T02:05:07.532Z,1008.15
2022-11-08T02:06:07.539Z,1008.15
2022-11-08T02:07:07.535Z,1008.14
2022-11-08T02:08:07.548Z,1008.11
2022-11-08T02:09:07.566Z,1008.12
2022-11-08T02:10:07.552Z,1008.14
2022-11-08T02:11:07.563Z,1008.08
2022-11-08T02:12:07.569Z,1008.07
2022-11-08T02:13:11.955Z,1008.04
2022-11-08T02:14:07.578Z,1008.06
2022-11-08T02:15:07.576Z,1008.06
2022-11-08T02:16:07.590Z,1008.10
2022-11-08T02:17:07.591Z,1008.10
2022-11-08T02:18:07.599Z,1008.12
2022-11-08T02:19:07.596Z,1008.12
2022-11-08T02:20:07.599Z,1008.06
2022-11-08T02:21:07.606Z,1008.07
2022-11-08T02:22:07.617Z,1008.06
2022-11-08T02:23:07.624Z,1008.10
2022-11-08T02:24:07.630Z,1008.08
2022-11-08T02:25:07.653Z,1008.07
2022-11-08T02:26:07.638Z,1008.15
2022-11-08T02:27:07.646Z,1008.19
2022-11-08T02:28:07.647Z,1008.18
2022-11-08T02:29:07.653Z,1008.22
2022-11-08T02:30:07.649Z,1008.18
2022-11-08T02:31:07.657Z,1008.22
2022-11-08T02:32:07.667Z,1008.18
2022-11-08T02:33:07.673Z,1008.16
2022-11-08T02:34:07.670Z,1008.14
2022-11-08T02:35:07.684Z,1008.18
2022-11-08T02:36:07.682Z,1008.15
2022-11-08T02:37:07.692Z,1008.15
2022-11-08T02:38:07.690Z,1008.12
2022-11-08T02:39:07.695Z,1008.12
2022-11-08T02:40:07.710Z,1008.09
2022-11-08T02:41:07.731Z,1008.10
2022-11-08T02:42:07.719Z,1008.08
2022-11-08T02:43:07.722Z,1008.06
2022-11-08T02:44:07.723Z,1007.98
2022-11-08T02:45:07.731Z,1008.00
2022-11-08T02:46:07.732Z,1007.96
2022-11-08T02:47:07.742Z,1007.95
2022-11-08T02:48:07.751Z,1007.97
2022-11-08T02:49:07.744Z,1007.96
2022-11-08T02:50:07.750Z,1007.94
2022-11-08T02:51:07.757Z,1007.92
2022-11-08T02:52:07.769Z,1007.90
2022-11-08T02:53:07.764Z,1007.89
2022-11-08T02:54:07.769Z,1007.90
2022-11-08T02:55:07.776Z,1007.95
2022-11-08T02:56:07.779Z,1007.93
2022-11-08T02:57:07.813Z,1007.92
2022-11-08T02:58:20.864Z,1007.95
2022-11-08T02:59:07.795Z,1007.94
2022-11-08T03:00:07.806Z,1007.92
2022-11-08T03:01:07.915Z,1007.93
2022-11-08T03:02:07.919Z,1007.90
2022-11-08T03:03:07.823Z,1007.91
2022-11-08T03:04:07.826Z,1007.92
2022-11-08T03:05:07.826Z,1007.96
2022-11-08T03:06:07.835Z,1008.01
2022-11-08T03:07:07.842Z,1008.00
2022-11-08T03:08:07.844Z,1007.98
2022-11-08T03:09:07.850Z,1008.05
2022-11-08T03:10:07.847Z,1008.04
2022-11-08T03:11:07.857Z,1008.00
2022-11-08T03:12:07.869Z,1008.02
2022-11-08T03:13:07.892Z,1007.99
2022-11-08T03:14:07.868Z,1008.00
2022-11-08T03:15:07.872Z,1008.01
2022-11-08T03:16:07.878Z,1007.99
2022-11-08T03:17:07.881Z,1008.00
2022-11-08T03:18:07.896Z,1008.04
2022-11-08T03:19:07.902Z,1008.04
2022-11-08T03:20:07.897Z,1008.06
2022-11-08T03:21:07.901Z,1008.10
2022-11-08T03:22:07.915Z,1008.03
2022-11-08T03:23:07.918Z,1008.07
2022-11-08T03:24:07.918Z,1008.10
2022-11-08T03:25:07.920Z,1008.10
2022-11-08T03:26:07.927Z,1008.09
2022-11-08T03:27:07.929Z,1008.11
2022-11-08T03:28:07.936Z,1008.12
2022-11-08T03:29:07.968Z,1008.12
2022-11-08T03:30:07.954Z,1008.09
2022-11-08T03:31:07.964Z,1008.06
2022-11-08T03:32:07.954Z,1008.09
2022-11-08T03:33:07.960Z,1008.10
2022-11-08T03:34:07.963Z,1008.11
2022-11-08T03:35:07.980Z,1008.06
2022-11-08T03:36:07.995Z,1008.09
2022-11-08T03:37:07.984Z,1008.15
2022-11-08T03:38:07.994Z,1008.11
2022-11-08T03:39:07.996Z,1008.08
2022-11-08T03:40:07.993Z,1008.07
2022-11-08T03:41:08.000Z,1008.11
2022-11-08T03:42:08.011Z,1008.11
2022-11-08T03:43:08.008Z,1008.15
2022-11-08T03:44:08.021Z,1008.12
2022-11-08T03:45:08.102Z,1008.11
2022-11-08T03:46:08.029Z,1008.12
2022-11-08T03:47:08.033Z,1008.12
2022-11-08T03:48:08.040Z,1008.09
2022-11-08T03:49:08.043Z,1008.07
2022-11-08T03:50:08.051Z,1008.09
2022-11-08T03:51:08.046Z,1008.11
2022-11-08T03:52:08.053Z,1008.04
2022-11-08T03:53:08.054Z,1008.04
2022-11-08T03:54:08.060Z,1008.10
2022-11-08T03:55:08.065Z,1008.05
2022-11-08T03:56:08.071Z,1008.09
2022-11-08T03:57:08.081Z,1008.09
2022-11-08T03:58:08.088Z,1008.12
2022-11-08T03:59:08.091Z,1008.09
2022-11-08T04:00:08.101Z,1008.09
2022-11-08T04:01:08.203Z,1008.11
2022-11-08T04:02:08.215Z,1008.09
2022-11-08T04:03:08.112Z,1008.08
2022-11-08T04:04:08.114Z,1008.08
2022-11-08T04:05:08.113Z,1008.10
2022-11-08T04:06:08.124Z,1008.11
2022-11-08T04:07:08.130Z,1008.11
2022-11-08T04:08:08.134Z,1008.14
2022-11-08T04:09:08.131Z,1008.16
2022-11-08T04:10:08.142Z,1008.16
2022-11-08T04:11:08.141Z,1008.12
2022-11-08T04:12:08.148Z,1008.08
2022-11-08T04:13:08.152Z,1008.08
2022-11-08T04:14:08.161Z,1008.05
2022-11-08T04:15:08.169Z,1008.06
2022-11-08T04:16:08.221Z,1008.04
2022-11-08T04:17:08.198Z,1008.01
2022-11-08T04:18:08.172Z,1008.00
2022-11-08T04:19:08.179Z,1008.00
2022-11-08T04:20:08.191Z,1007.99
2022-11-08T04:21:08.186Z,1007.96
2022-11-08T04:22:08.194Z,1007.97
2022-11-08T04:23:08.204Z,1007.94
2022-11-08T04:24:08.212Z,1007.95
2022-11-08T04:25:08.214Z,1007.93
2022-11-08T04:26:08.250Z,1007.94
2022-11-08T04:27:08.219Z,1007.93
2022-11-08T04:28:08.232Z,1007.92
2022-11-08T04:29:08.233Z,1007.89
2022-11-08T04:30:08.231Z,1007.91
2022-11-08T04:31:08.235Z,1007.91
2022-11-08T04:32:08.241Z,1007.87
2022-11-08T04:33:08.273Z,1007.88
2022-11-08T04:34:08.259Z,1007.90
2022-11-08T04:35:08.255Z,1007.88
2022-11-08T04:36:08.267Z,1007.90
2022-11-08T04:37:08.262Z,1007.89
2022-11-08T04:38:08.273Z,1007.89
2022-11-08T04:39:08.273Z,1007.87
2022-11-08T04:40:08.278Z,1007.88
2022-11-08T04:41:08.289Z,1007.91
2022-11-08T04:42:08.286Z,1007.89
2022-11-08T04:43:08.294Z,1007.88
2022-11-08T04:44:08.304Z,1007.85
2022-11-08T04:45:08.302Z,1007.82
2022-11-08T04:46:08.304Z,1007.82
2022-11-08T04:47:08.319Z,1007.80
2022-11-08T04:48:08.322Z,1007.80
2022-11-08T04:49:08.348Z,1007.75
2022-11-08T04:50:08.331Z,1007.75
2022-11-08T04:51:08.342Z,1007.73
2022-11-08T04:52:08.334Z,1007.66
2022-11-08T04:53:08.340Z,1007.66
2022-11-08T04:54:08.344Z,1007.69
2022-11-08T04:55:08.356Z,1007.65
2022-11-08T04:56:08.365Z,1007.65
2022-11-08T04:57:08.365Z,1007.67
2022-11-08T04:58:08.370Z,1007.66
2022-11-08T04:59:11.941Z,1007.69
2022-11-08T05:00:08.373Z,1007.71
2022-11-08T05:01:08.456Z,1007.73
2022-11-08T05:02:08.488Z,1007.73
2022-11-08T05:03:08.393Z,1007.73
2022-11-08T05:04:08.399Z,1007.76
2022-11-08T05:05:08.423Z,1007.76
2022-11-08T05:06:08.414Z,1007.78
2022-11-08T05:07:08.419Z,1007.76
2022-11-08T05:08:08.418Z,1007.79
2022-11-08T05:09:08.422Z,1007.75
2022-11-08T05:10:08.428Z,1007.78
2022-11-08T05:11:08.429Z,1007.77
2022-11-08T05:12:08.435Z,1007.76
2022-11-08T05:13:08.433Z,1007.77
2022-11-08T05:14:08.437Z,1007.78
2022-11-08T05:15:08.458Z,1007.78
2022-11-08T05:16:08.446Z,1007.75
2022-11-08T05:17:08.451Z,1007.77
2022-11-08T05:18:08.462Z,1007.81
2022-11-08T05:19:12.981Z,1007.81
2022-11-08T05:20:08.472Z,1007.80
2022-11-08T05:21:08.492Z,1007.80
2022-11-08T05:22:08.485Z,1007.78
2022-11-08T05:23:08.486Z,1007.78
2022-11-08T05:24:08.484Z,1007.74
2022-11-08T05:25:08.487Z,1007.75
2022-11-08T05:26:08.497Z,1007.77
2022-11-08T05:27:08.498Z,1007.77
2022-11-08T05:28:08.502Z,1007.78
2022-11-08T05:29:08.513Z,1007.75
2022-11-08T05:30:08.512Z,1007.73
2022-11-08T05:31:08.517Z,1007.69
2022-11-08T05:32:08.528Z,1007.69
2022-11-08T05:33:08.526Z,1007.67
2022-11-08T05:34:08.536Z,1007.68
2022-11-08T05:35:08.535Z,1007.67
2022-11-08T05:36:08.546Z,1007.70
2022-11-08T05:37:08.571Z,1007.68
2022-11-08T05:38:08.555Z,1007.66
2022-11-08T05:39:08.561Z,1007.70
2022-11-08T05:40:08.565Z,1007.68
2022-11-08T05:41:08.569Z,1007.69
2022-11-08T05:42:08.572Z,1007.69
2022-11-08T05:43:08.571Z,1007.74
2022-11-08T05:44:08.575Z,1007.71
2022-11-08T05:45:09.634Z,1007.80
2022-11-08T05:46:08.583Z,1007.79
2022-11-08T05:47:08.596Z,1007.81
2022-11-08T05:48:08.598Z,1007.78
2022-11-08T05:49:08.610Z,1007.78
2022-11-08T05:50:08.609Z,1007.79
2022-11-08T05:51:08.614Z,1007.80
2022-11-08T05:52:08.625Z,1007.78
2022-11-08T05:53:08.642Z,1007.76
2022-11-08T05:54:08.638Z,1007.71
2022-11-08T05:55:08.631Z,1007.72
2022-11-08T05:56:08.638Z,1007.67
2022-11-08T05:57:08.639Z,1007.66
2022-11-08T05:58:08.638Z,1007.68
2022-11-08T05:59:08.648Z,1007.69
2022-11-08T06:00:08.647Z,1007.70
2022-11-08T06:01:08.657Z,1007.71
2022-11-08T06:02:08.868Z,1007.72
2022-11-08T06:03:08.774Z,1007.74
2022-11-08T06:04:08.671Z,1007.75
2022-11-08T06:05:08.670Z,1007.76
2022-11-08T06:06:08.680Z,1007.74
2022-11-08T06:07:08.678Z,1007.75
2022-11-08T06:08:08.682Z,1007.75
2022-11-08T06:09:08.710Z,1007.81
2022-11-08T06:10:08.697Z,1007.81
2022-11-08T06:11:08.696Z,1007.80
2022-11-08T06:12:08.707Z,1007.80
2022-11-08T06:13:08.704Z,1007.78
2022-11-08T06:14:08.715Z,1007.81
2022-11-08T06:15:08.728Z,1007.81
2022-11-08T06:16:08.730Z,1007.83
2022-11-08T06:17:08.724Z,1007.79
2022-11-08T06:18:08.725Z,1007.81
2022-11-08T06:19:08.737Z,1007.80
2022-11-08T06:20:08.744Z,1007.87
2022-11-08T06:21:08.746Z,1007.83
2022-11-08T06:22:08.743Z,1007.84
2022-11-08T06:23:08.748Z,1007.85
2022-11-08T06:24:08.755Z,1007.86
2022-11-08T06:25:08.784Z,1007.86
2022-11-08T06:26:08.770Z,1007.86
2022-11-08T06:27:08.766Z,1007.85
2022-11-08T06:28:08.774Z,1007.89
2022-11-08T06:29:08.781Z,1007.85
2022-11-08T06:30:08.782Z,1007.86
2022-11-08T06:31:08.788Z,1007.83
2022-11-08T06:32:08.790Z,1007.82
2022-11-08T06:33:08.802Z,1007.82
2022-11-08T06:34:08.804Z,1007.76
2022-11-08T06:35:08.810Z,1007.78
2022-11-08T06:36:08.814Z,1007.82
2022-11-08T06:37:08.821Z,1007.83
2022-11-08T06:38:09.608Z,1007.86
2022-11-08T06:39:08.827Z,1007.85
2022-11-08T06:40:08.830Z,1007.88
2022-11-08T06:41:08.858Z,1007.86
2022-11-08T06:42:08.842Z,1007.93
2022-11-08T06:43:08.846Z,1007.95
2022-11-08T06:44:08.848Z,1007.91
2022-11-08T06:45:08.850Z,1007.90
2022-11-08T06:46:08.856Z,1007.88
2022-11-08T06:47:08.863Z,1007.89
2022-11-08T06:48:08.867Z,1007.93
2022-11-08T06:49:08.863Z,1007.92
2022-11-08T06:50:08.874Z,1007.91
2022-11-08T06:51:08.874Z,1007.91
2022-11-08T06:52:08.883Z,1007.87
2022-11-08T06:53:08.884Z,1007.88
2022-11-08T06:54:10.440Z,1007.89
2022-11-08T06:55:08.899Z,1007.89
2022-11-08T06:56:08.896Z,1007.88
2022-11-08T06:57:08.938Z,1007.91
2022-11-08T06:58:08.905Z,1007.92
2022-11-08T06:59:08.909Z,1007.91
2022-11-08T07:00:08.914Z,1007.85
2022-11-08T07:01:09.030Z,1007.94
2022-11-08T07:02:09.136Z,1007.86
2022-11-08T07:03:09.015Z,1007.83
2022-11-08T07:04:08.934Z,1007.86
2022-11-08T07:05:08.944Z,1007.82
2022-11-08T07:06:08.951Z,1007.80
2022-11-08T07:07:08.953Z,1007.79
2022-11-08T07:08:08.957Z,1007.79
2022-11-08T07:09:08.963Z,1007.82
2022-11-08T07:10:08.965Z,1007.78
2022-11-08T07:11:08.971Z,1007.83
2022-11-08T07:12:08.975Z,1007.83
2022-11-08T07:13:08.993Z,1007.83
2022-11-08T07:14:08.985Z,1007.79
2022-11-08T07:15:08.982Z,1007.82
2022-11-08T07:16:09.026Z,1007.74
2022-11-08T07:17:08.998Z,1007.76
2022-11-08T07:18:09.102Z,1007.74
2022-11-08T07:19:09.008Z,1007.72
2022-11-08T07:20:09.020Z,1007.71
2022-11-08T07:21:09.010Z,1007.72
2022-11-08T07:22:09.026Z,1007.74
2022-11-08T07:23:09.034Z,1007.75
2022-11-08T07:24:09.034Z,1007.70
2022-11-08T07:25:09.030Z,1007.69
2022-11-08T07:26:09.038Z,1007.70
2022-11-08T07:27:09.051Z,1007.69
2022-11-08T07:28:09.056Z,1007.64
2022-11-08T07:30:16.674Z,1007.65
2022-11-08T07:31:16.656Z,1007.60
2022-11-08T07:32:16.664Z,1007.63
2022-11-08T07:33:17.044Z,1007.59
2022-11-08T07:34:16.670Z,1007.61
2022-11-08T07:35:16.682Z,1007.58
2022-11-08T07:38:01.817Z,1007.56
2022-11-08T15:06:17.836Z,1003.79
2022-11-08T15:07:17.884Z,1003.78
2022-11-08T15:08:17.817Z,1003.78
2022-11-08T15:09:17.823Z,1003.77
2022-11-08T15:10:17.821Z,1003.81
2022-11-08T15:11:17.832Z,1003.73
2022-11-08T15:12:17.844Z,1003.79
2022-11-08T15:13:18.158Z,1003.71
2022-11-08T15:14:17.851Z,1003.74
2022-11-08T15:15:17.868Z,1003.70
2022-11-08T15:16:17.875Z,1003.72
2022-11-08T15:17:17.881Z,1003.66
2022-11-08T15:18:17.888Z,1003.66
2022-11-08T15:19:17.888Z,1003.67
2022-11-08T15:20:17.905Z,1003.63
2022-11-08T15:21:17.908Z,1003.66
2022-11-08T15:22:17.939Z,1003.64
2022-11-08T15:23:18.252Z,1003.64
2022-11-08T15:24:17.927Z,1003.64
2022-11-08T15:25:17.944Z,1003.65
2022-11-08T15:26:18.275Z,1003.61
2022-11-08T15:27:17.955Z,1003.60
2022-11-08T15:28:18.190Z,1003.64
2022-11-08T15:29:17.964Z,1003.62
2022-11-08T15:30:17.971Z,1003.63
2022-11-08T15:31:17.977Z,1003.61
2022-11-08T15:32:17.994Z,1003.62
2022-11-08T15:33:17.993Z,1003.58
2022-11-08T15:34:17.998Z,1003.60
2022-11-08T15:35:18.008Z,1003.58
2022-11-08T15:36:18.013Z,1003.61
2022-11-08T15:37:18.029Z,1003.58
2022-11-08T15:38:18.577Z,1003.59
2022-11-08T15:39:18.038Z,1003.61
2022-11-08T15:40:18.050Z,1003.60
2022-11-08T15:41:18.059Z,1003.61
2022-11-08T15:42:18.057Z,1003.59
2022-11-08T15:43:18.075Z,1003.65
2022-11-08T15:44:18.081Z,1003.60
2022-11-08T15:45:18.082Z,1003.62
2022-11-08T15:46:18.091Z,1003.66
2022-11-08T15:47:18.097Z,1003.63
2022-11-08T15:48:18.433Z,1003.63
2022-11-08T15:49:18.118Z,1003.58
2022-11-08T15:50:18.120Z,1003.55
2022-11-08T15:51:18.126Z,1003.57
2022-11-08T15:52:21.428Z,1003.55
2022-11-08T15:53:18.149Z,1003.61
2022-11-08T15:54:18.186Z,1003.62
2022-11-08T15:55:18.164Z,1003.60
2022-11-08T15:56:18.167Z,1003.65
2022-11-08T15:57:18.172Z,1003.65
2022-11-08T15:58:18.624Z,1003.73
2022-11-08T15:59:21.253Z,1003.79
2022-11-08T16:00:18.200Z,1003.80
2022-11-08T16:01:18.260Z,1003.82
2022-11-08T16:02:18.215Z,1003.83
2022-11-08T16:03:18.229Z,1003.81
2022-11-08T16:04:18.223Z,1003.78
2022-11-08T16:05:18.231Z,1003.73
2022-11-08T16:06:18.236Z,1003.73
2022-11-08T16:07:18.369Z,1003.68
2022-11-08T16:08:21.030Z,1003.65
2022-11-08T16:09:18.266Z,1003.57
2022-11-08T16:10:18.294Z,1003.56
2022-11-08T16:11:18.281Z,1003.52
2022-11-08T16:12:18.283Z,1003.46
2022-11-08T16:13:18.289Z,1003.46
2022-11-08T16:14:18.305Z,1003.50
2022-11-08T16:15:18.311Z,1003.47
2022-11-08T16:16:18.311Z,1003.43
2022-11-08T16:17:18.320Z,1003.47
2022-11-08T16:18:18.666Z,1003.48
2022-11-08T16:19:18.336Z,1003.49
2022-11-08T16:20:18.341Z,1003.46
2022-11-08T16:21:18.355Z,1003.52
2022-11-08T16:22:19.431Z,1003.52
2022-11-08T16:23:18.363Z,1003.51
2022-11-08T16:24:18.375Z,1003.54
2022-11-08T16:25:18.375Z,1003.53
2022-11-08T16:26:18.425Z,1003.52
2022-11-08T16:27:18.390Z,1003.53
2022-11-08T16:28:18.560Z,1003.47
2022-11-08T16:29:18.414Z,1003.49
2022-11-08T16:30:18.432Z,1003.50
2022-11-08T16:31:18.430Z,1003.43
2022-11-08T16:32:18.451Z,1003.46
2022-11-08T16:33:18.450Z,1003.42
2022-11-08T16:34:18.453Z,1003.46
2022-11-08T16:35:18.467Z,1003.50
2022-11-08T16:36:18.456Z,1003.48
2022-11-08T16:37:18.465Z,1003.53
2022-11-08T16:38:18.871Z,1003.53
2022-11-08T16:39:18.486Z,1003.50
2022-11-08T16:40:18.482Z,1003.51
2022-11-08T16:41:18.499Z,1003.53
2022-11-08T16:42:18.566Z,1003.55
2022-11-08T16:43:18.511Z,1003.52
2022-11-08T16:44:18.516Z,1003.57
2022-11-08T16:45:24.303Z,1003.57
2022-11-08T16:46:18.533Z,1003.63
2022-11-08T16:47:18.542Z,1003.63
2022-11-08T16:48:18.832Z,1003.68
2022-11-08T16:49:18.556Z,1003.66
2022-11-08T16:50:18.562Z,1003.65
2022-11-08T16:51:18.572Z,1003.68
2022-11-08T16:52:18.578Z,1003.68
2022-11-08T16:53:18.578Z,1003.68
2022-11-08T16:54:18.584Z,1003.72
2022-11-08T16:55:18.596Z,1003.71
2022-11-08T16:56:18.606Z,1003.68
2022-11-08T16:57:34.308Z,1003.70
2022-11-08T16:58:18.921Z,1003.71
2022-11-08T16:59:18.624Z,1003.66
2022-11-08T17:00:18.633Z,1003.70
2022-11-08T17:01:18.672Z,1003.69
2022-11-08T17:02:18.652Z,1003.68
2022-11-08T17:03:18.659Z,1003.74
2022-11-08T17:04:18.659Z,1003.74
2022-11-08T17:05:18.664Z,1003.66
2022-11-08T17:06:18.675Z,1003.70
2022-11-08T17:07:18.805Z,1003.70
2022-11-08T17:08:19.115Z,1003.63
2022-11-08T17:09:18.692Z,1003.69
2022-11-08T17:10:18.710Z,1003.71
2022-11-08T17:11:18.716Z,1003.69
2022-11-08T17:12:18.725Z,1003.67
2022-11-08T17:13:18.722Z,1003.68
2022-11-08T17:14:18.803Z,1003.65
2022-11-08T17:17:44.599Z,1003.59
2022-11-08T17:18:47.515Z,1003.60
2022-11-08T17:19:44.611Z,1003.61
2022-11-08T17:20:44.623Z,1003.61
2022-11-08T17:21:45.857Z,1003.59
2022-11-08T17:22:44.636Z,1003.57
2022-11-08T17:23:44.639Z,1003.59
2022-11-08T17:24:44.642Z,1003.67
2022-11-08T17:25:44.708Z,1003.69
2022-11-08T17:26:44.654Z,1003.70
2022-11-08T17:27:44.661Z,1003.77
2022-11-08T17:28:44.670Z,1003.79
2022-11-08T17:29:44.703Z,1003.77
2022-11-08T17:30:44.849Z,1003.77
2022-11-08T17:31:44.697Z,1003.71
2022-11-08T17:32:44.699Z,1003.75
2022-11-08T17:33:44.711Z,1003.80
2022-11-08T17:34:44.709Z,1003.80
2022-11-08T17:35:44.833Z,1003.81
2022-11-08T17:36:44.722Z,1003.82
2022-11-08T17:37:44.738Z,1003.82
2022-11-08T17:38:44.749Z,1003.88
2022-11-08T17:39:44.749Z,1003.84
2022-11-08T17:40:44.758Z,1003.90
2022-11-08T17:41:44.762Z,1003.91
2022-11-08T17:42:44.765Z,1003.95
2022-11-08T17:43:44.778Z,1003.96
2022-11-08T17:44:44.786Z,1003.96
2022-11-08T17:45:44.807Z,1003.98
2022-11-08T17:46:44.800Z,1003.96
2022-11-08T17:47:44.801Z,1003.97
2022-11-08T17:48:44.816Z,1003.98
2022-11-08T17:49:44.823Z,1003.99
2022-11-08T17:50:44.830Z,1004.03
2022-11-08T17:51:44.836Z,1003.99
2022-11-08T17:52:44.844Z,1003.98
2022-11-08T17:53:44.849Z,1003.99
2022-11-08T17:54:48.997Z,1003.97
2022-11-08T17:55:44.857Z,1003.94
2022-11-08T17:56:44.861Z,1003.93
2022-11-08T17:57:44.877Z,1003.89
2022-11-08T17:58:44.878Z,1003.92
2022-11-08T17:59:44.891Z,1003.88
2022-11-08T18:00:44.923Z,1003.92
2022-11-08T18:01:44.963Z,1003.95
2022-11-08T18:02:44.914Z,1003.95
2022-11-08T18:03:44.913Z,1003.99
2022-11-08T18:04:44.929Z,1004.00
2022-11-08T18:05:44.934Z,1004.01
2022-11-08T18:06:44.973Z,1004.00
2022-11-08T18:07:44.950Z,1003.99
2022-11-08T18:08:44.949Z,1003.98
2022-11-08T18:09:44.958Z,1003.98
2022-11-08T18:10:44.966Z,1004.00
2022-11-08T18:11:44.975Z,1003.98
2022-11-08T18:12:44.979Z,1003.98
2022-11-08T18:13:44.987Z,1003.93
2022-11-08T18:14:44.995Z,1003.95
2022-11-08T18:15:45.012Z,1003.92
2022-11-08T18:16:45.009Z,1003.94
2022-11-08T18:17:45.093Z,1003.88
2022-11-08T18:18:45.015Z,1003.90
2022-11-08T18:19:45.029Z,1003.91
2022-11-08T18:20:45.046Z,1003.84
2022-11-08T18:21:45.043Z,1003.85
2022-11-08T18:22:45.052Z,1003.86
2022-11-08T18:23:45.050Z,1003.86
2022-11-08T18:24:47.629Z,1003.84
2022-11-08T18:25:45.061Z,1003.85
2022-11-08T18:26:45.069Z,1003.86
2022-11-08T18:27:45.083Z,1003.83
2022-11-08T18:28:45.080Z,1003.86
2022-11-08T18:29:45.091Z,1003.87
2022-11-08T18:30:47.851Z,1003.92
2022-11-08T18:31:45.112Z,1003.93
2022-11-08T18:32:45.116Z,1003.92
2022-11-08T18:33:45.144Z,1003.88
2022-11-08T18:34:45.131Z,1003.87
2022-11-08T18:35:45.137Z,1003.85
2022-11-08T18:36:45.136Z,1003.86
2022-11-08T18:37:45.143Z,1003.91
2022-11-08T18:38:45.156Z,1003.88
2022-11-08T18:39:45.167Z,1003.93
2022-11-08T18:40:45.168Z,1003.92
2022-11-08T18:41:45.178Z,1003.90
2022-11-08T18:42:45.177Z,1003.88
2022-11-08T18:43:45.191Z,1003.89
2022-11-08T18:44:45.192Z,1003.90
2022-11-08T18:45:45.205Z,1003.82
2022-11-08T18:46:45.211Z,1003.82
2022-11-08T18:47:45.218Z,1003.84
2022-11-08T18:48:45.223Z,1003.85
2022-11-08T18:49:45.245Z,1003.84
2022-11-08T18:50:45.238Z,1003.83
2022-11-08T18:51:45.247Z,1003.84
2022-11-08T18:52:45.254Z,1003.82
2022-11-08T18:53:45.260Z,1003.82
2022-11-08T18:54:45.262Z,1003.76
2022-11-08T18:55:45.268Z,1003.76
2022-11-08T18:56:45.271Z,1003.72
2022-11-08T18:57:45.292Z,1003.71
2022-11-08T18:58:45.294Z,1003.72
2022-11-08T18:59:45.293Z,1003.68
2022-11-08T19:00:45.299Z,1003.68
2022-11-08T19:01:45.369Z,1003.64
2022-11-08T19:02:45.322Z,1003.64
2022-11-08T19:03:45.321Z,1003.60
2022-11-08T19:04:45.333Z,1003.59
2022-11-08T19:05:45.361Z,1003.64
2022-11-08T19:06:47.736Z,1003.69
2022-11-08T19:07:45.354Z,1003.72
2022-11-08T19:08:45.362Z,1003.75
2022-11-08T19:09:45.364Z,1003.70
2022-11-08T19:10:45.375Z,1003.75
2022-11-08T19:11:45.381Z,1003.71
2022-11-08T19:12:45.388Z,1003.74
2022-11-08T19:13:45.386Z,1003.73
2022-11-08T19:14:45.395Z,1003.75
2022-11-08T19:15:45.400Z,1003.72
2022-11-08T19:16:45.416Z,1003.70
2022-11-08T19:17:51.307Z,1003.75
2022-11-08T19:18:45.424Z,1003.77
2022-11-08T19:19:45.427Z,1003.84
2022-11-08T19:20:45.442Z,1003.84
2022-11-08T19:21:45.468Z,1003.92
2022-11-08T19:22:45.451Z,1003.93
2022-11-08T19:23:45.454Z,1003.95
2022-11-08T19:24:45.469Z,1003.96
2022-11-08T19:25:45.468Z,1003.97
2022-11-08T19:26:45.478Z,1004.02
2022-11-08T19:27:45.483Z,1004.05
2022-11-08T19:28:45.606Z,1004.05
2022-11-08T19:29:45.497Z,1004.07
2022-11-08T19:30:45.510Z,1004.03
2022-11-08T19:31:45.520Z,1004.02
2022-11-08T19:32:45.528Z,1004.03
2022-11-08T19:33:45.530Z,1004.02
2022-11-08T19:34:45.532Z,1004.06
2022-11-08T19:35:45.537Z,1004.07
2022-11-08T19:36:45.553Z,1004.10
2022-11-08T19:37:45.695Z,1004.04